Time;durP1;ratioP1;P1;durP2;ratioP2;P2;SDS_P1;SDS_P2;PMS_P1;PMS_P2;Temp;Humidity;BMP_temperature;BMP_pressure;BME280_temperature;BME280_humidity;BME280_pressure;Samples;Min_cycle;Max_cycle;Signal;HPM_P1;HPM_P2
2023/03/29 00:01:01;;;;;;;56.17;21.35;;;;;;;;;;6257287;28;20593;-55
2023/03/29 00:04:03;;;;;;;58.53;20.75;;;;;;;;;;6261378;28;20049;-55
2023/03/29 00:07:04;;;;;;;63.58;21.35;;;;;;;;;;6259944;28;20411;-58
2023/03/29 00:10:06;;;;;;;163.67;43.90;;;;;;;;;;6259152;28;20063;-57
2023/03/29 00:13:07;;;;;;;94.63;27.33;;;;;;;;;;6258833;28;20049;-56
2023/03/29 00:16:08;;;;;;;94.03;28.48;;;;;;;;;;6260068;28;20561;-57
2023/03/29 00:19:09;;;;;;;108.72;37.30;;;;;;;;;;6258387;28;20114;-53
2023/03/29 00:22:09;;;;;;;99.55;29.67;;;;;;;;;;6258380;28;20045;-56
2023/03/29 00:25:12;;;;;;;95.43;29.20;;;;;;;;;;6267638;28;20132;-56
2023/03/29 00:28:13;;;;;;;98.45;29.50;;;;;;;;;;6264135;28;20118;-57
2023/03/29 00:31:16;;;;;;;87.00;26.00;;;;;;;;;;6258029;28;20049;-57
2023/03/29 00:34:17;;;;;;;87.88;27.33;;;;;;;;;;6260970;28;20084;-61
2023/03/29 00:37:18;;;;;;;87.13;27.95;;;;;;;;;;6258880;28;20059;-57
2023/03/29 00:40:18;;;;;;;103.32;30.33;;;;;;;;;;6258020;28;20049;-54
2023/03/29 00:43:19;;;;;;;117.22;33.33;;;;;;;;;;6263361;28;20041;-56
2023/03/29 00:46:20;;;;;;;95.93;29.73;;;;;;;;;;6264958;28;20037;-58
2023/03/29 00:49:21;;;;;;;99.35;30.08;;;;;;;;;;6266618;28;20041;-54
2023/03/29 00:52:21;;;;;;;103.68;31.63;;;;;;;;;;6264186;28;20064;-55
2023/03/29 00:55:24;;;;;;;99.47;29.38;;;;;;;;;;6264596;28;20055;-57
2023/03/29 00:58:40;;;;;;;101.00;30.98;;;;;;;;;;6264066;28;20049;-56
2023/03/29 01:01:47;;;;;;;96.25;31.23;;;;;;;;;;6264869;28;20059;-57
2023/03/29 01:04:56;;;;;;;93.43;29.42;;;;;;;;;;6264832;28;20037;-54
2023/03/29 01:08:04;;;;;;;94.43;29.15;;;;;;;;;;6260698;28;20049;-55
2023/03/29 01:11:18;;;;;;;92.68;29.35;;;;;;;;;;6264103;28;20051;-60
2023/03/29 01:14:23;;;;;;;90.03;27.92;;;;;;;;;;6258267;28;20083;-56
2023/03/29 01:17:24;;;;;;;100.38;29.70;;;;;;;;;;6260217;28;20059;-55
2023/03/29 01:20:34;;;;;;;93.60;30.52;;;;;;;;;;6260726;28;20052;-55
2023/03/29 01:23:42;;;;;;;97.88;29.23;;;;;;;;;;6257586;28;20064;-52
2023/03/29 01:26:58;;;;;;;90.90;29.90;;;;;;;;;;6259717;28;20601;-55
2023/03/29 01:30:02;;;;;;;100.70;31.08;;;;;;;;;;6259402;28;20037;-57
2023/03/29 01:33:36;;;;;;;89.80;30.60;;;;;;;;;;6259613;28;20045;-57
2023/03/29 01:37:03;;;;;;;100.72;32.45;;;;;;;;;;6258502;28;20052;-54
2023/03/29 01:40:05;;;;;;;95.45;31.98;;;;;;;;;;6257646;28;20041;-54
2023/03/29 01:43:21;;;;;;;96.95;34.17;;;;;;;;;;6258939;28;20074;-57
2023/03/29 01:46:24;;;;;;;98.72;32.85;;;;;;;;;;6258240;28;20057;-54
2023/03/29 01:49:28;;;;;;;96.75;31.58;;;;;;;;;;6259638;28;20123;-58
2023/03/29 01:52:56;;;;;;;95.25;32.17;;;;;;;;;;6260881;28;20049;-55
2023/03/29 01:56:11;;;;;;;95.40;32.00;;;;;;;;;;6260170;28;20128;-57
2023/03/29 01:59:16;;;;;;;98.07;32.80;;;;;;;;;;6257518;28;20056;-57
2023/03/29 02:02:18;;;;;;;93.75;32.45;;;;;;;;;;6258954;28;20057;-59
2023/03/29 02:05:21;;;;;;;93.80;31.65;;;;;;;;;;6264287;28;20469;-57
2023/03/29 02:08:23;;;;;;;88.88;29.50;;;;;;;;;;6264221;28;20049;-56
2023/03/29 02:11:28;;;;;;;95.65;30.77;;;;;;;;;;6270047;28;20056;-56
2023/03/29 02:14:29;;;;;;;93.63;33.45;;;;;;;;;;6266463;28;20056;-55
2023/03/29 02:17:29;;;;;;;99.00;34.27;;;;;;;;;;6265340;28;20055;-54
2023/03/29 02:20:37;;;;;;;103.35;33.92;;;;;;;;;;6271304;28;20049;-55
2023/03/29 02:23:46;;;;;;;93.15;30.75;;;;;;;;;;6265005;28;21009;-58
2023/03/29 02:26:47;;;;;;;92.93;31.73;;;;;;;;;;6262342;28;20045;-60
2023/03/29 02:29:48;;;;;;;87.53;29.43;;;;;;;;;;6265632;28;20175;-55
2023/03/29 02:32:51;;;;;;;91.28;30.88;;;;;;;;;;6264296;28;20298;-55
2023/03/29 02:35:57;;;;;;;92.47;31.40;;;;;;;;;;6265126;28;20041;-56
2023/03/29 02:39:01;;;;;;;99.40;33.45;;;;;;;;;;6268802;28;20048;-54
2023/03/29 02:42:03;;;;;;;98.93;33.38;;;;;;;;;;6264281;28;20057;-58
2023/03/29 02:45:05;;;;;;;92.10;33.40;;;;;;;;;;6262343;28;20045;-56
2023/03/29 02:48:10;;;;;;;83.00;32.30;;;;;;;;;;6268077;28;20049;-53
2023/03/29 02:51:17;;;;;;;96.35;33.20;;;;;;;;;;6264592;28;20519;-55
2023/03/29 02:54:20;;;;;;;89.32;33.67;;;;;;;;;;6261825;28;20047;-59
2023/03/29 02:57:25;;;;;;;91.47;33.30;;;;;;;;;;6268663;28;20045;-55
2023/03/29 03:00:26;;;;;;;105.80;35.38;;;;;;;;;;6264869;28;20048;-58
2023/03/29 03:03:26;;;;;;;95.78;32.22;;;;;;;;;;6263811;28;20049;-58
2023/03/29 03:06:28;;;;;;;106.00;35.35;;;;;;;;;;6264229;28;20049;-57
2023/03/29 03:09:28;;;;;;;109.32;36.70;;;;;;;;;;6267799;28;20091;-52
2023/03/29 03:12:29;;;;;;;103.18;37.92;;;;;;;;;;6267189;28;20049;-56
2023/03/29 03:15:30;;;;;;;102.15;36.03;;;;;;;;;;6264053;28;20420;-56
2023/03/29 03:18:30;;;;;;;100.40;35.97;;;;;;;;;;6265208;28;20142;-55
2023/03/29 03:21:31;;;;;;;105.57;38.50;;;;;;;;;;6264095;28;20475;-56
2023/03/29 03:24:32;;;;;;;109.03;38.10;;;;;;;;;;6262085;28;20419;-59
2023/03/29 03:27:32;;;;;;;127.35;39.17;;;;;;;;;;6264170;28;20037;-54
2023/03/29 03:30:33;;;;;;;109.63;36.70;;;;;;;;;;6263774;28;20075;-53
2023/03/29 03:33:34;;;;;;;119.65;38.85;;;;;;;;;;6261647;28;20049;-56
2023/03/29 03:36:35;;;;;;;113.88;39.40;;;;;;;;;;6261631;28;20037;-55
2023/03/29 03:39:36;;;;;;;119.57;39.03;;;;;;;;;;6262271;28;20175;-54
2023/03/29 03:42:38;;;;;;;119.28;39.78;;;;;;;;;;6267458;28;20450;-54
2023/03/29 03:45:38;;;;;;;124.53;40.05;;;;;;;;;;6266932;28;20041;-54
2023/03/29 03:48:39;;;;;;;109.07;38.10;;;;;;;;;;6267067;28;20079;-60
2023/03/29 03:51:43;;;;;;;115.63;38.30;;;;;;;;;;6269362;28;20049;-60
2023/03/29 03:54:45;;;;;;;104.32;36.08;;;;;;;;;;6264980;28;20045;-60
2023/03/29 03:57:46;;;;;;;115.10;36.60;;;;;;;;;;6268027;28;20124;-56
2023/03/29 04:00:49;;;;;;;111.63;38.10;;;;;;;;;;6261387;28;20480;-57
2023/03/29 04:03:49;;;;;;;106.18;37.30;;;;;;;;;;6263605;28;20128;-52
2023/03/29 04:06:50;;;;;;;108.18;39.42;;;;;;;;;;6260954;28;20045;-54
2023/03/29 04:09:51;;;;;;;99.55;37.22;;;;;;;;;;6264126;28;20198;-56
2023/03/29 04:12:52;;;;;;;107.20;36.30;;;;;;;;;;6260146;28;20051;-58
2023/03/29 04:15:55;;;;;;;111.53;38.75;;;;;;;;;;6260193;28;20045;-55
2023/03/29 04:18:55;;;;;;;100.68;37.55;;;;;;;;;;6262495;28;20048;-53
2023/03/29 04:21:56;;;;;;;107.72;37.63;;;;;;;;;;6262190;28;20064;-59
2023/03/29 04:24:57;;;;;;;110.88;39.58;;;;;;;;;;6256771;28;20445;-59
2023/03/29 04:27:57;;;;;;;120.07;39.42;;;;;;;;;;6262729;28;20128;-57
2023/03/29 04:30:58;;;;;;;123.45;41.20;;;;;;;;;;6265283;28;20057;-57
2023/03/29 04:33:59;;;;;;;121.97;44.42;;;;;;;;;;6262566;28;20045;-57
2023/03/29 04:36:59;;;;;;;121.25;41.70;;;;;;;;;;6259816;28;20041;-58
2023/03/29 04:40:00;;;;;;;129.13;42.60;;;;;;;;;;6256354;28;20048;-54
2023/03/29 04:43:01;;;;;;;121.82;40.58;;;;;;;;;;6268391;28;20079;-55
2023/03/29 04:46:02;;;;;;;123.97;42.63;;;;;;;;;;6261132;28;20048;-55
2023/03/29 04:49:02;;;;;;;123.65;42.15;;;;;;;;;;6254994;28;20144;-54
2023/03/29 04:52:03;;;;;;;127.53;42.90;;;;;;;;;;6264879;28;20075;-57
2023/03/29 04:55:05;;;;;;;120.78;41.95;;;;;;;;;;6259934;28;20054;-59
2023/03/29 04:58:06;;;;;;;121.60;44.63;;;;;;;;;;6261460;28;20364;-56
2023/03/29 05:01:08;;;;;;;124.68;42.92;;;;;;;;;;6256095;28;20067;-60
2023/03/29 05:04:08;;;;;;;122.68;47.95;;;;;;;;;;6257571;28;20118;-56
2023/03/29 05:07:10;;;;;;;138.00;48.33;;;;;;;;;;6263205;28;20052;-54
2023/03/29 05:10:11;;;;;;;137.70;52.70;;;;;;;;;;6265343;28;20130;-60
2023/03/29 05:13:11;;;;;;;138.13;55.78;;;;;;;;;;6263867;28;20439;-54
2023/03/29 05:16:12;;;;;;;144.85;57.35;;;;;;;;;;6264334;28;20048;-59
2023/03/29 05:19:12;;;;;;;124.45;46.10;;;;;;;;;;6264077;28;20073;-54
2023/03/29 05:22:14;;;;;;;156.02;55.13;;;;;;;;;;6260957;28;20059;-54
2023/03/29 05:25:16;;;;;;;125.75;47.95;;;;;;;;;;6259885;28;20420;-55
2023/03/29 05:28:17;;;;;;;118.68;45.63;;;;;;;;;;6263054;28;20593;-54
2023/03/29 05:31:18;;;;;;;92.55;34.47;;;;;;;;;;6261039;28;20427;-54
2023/03/29 05:34:19;;;;;;;98.88;37.45;;;;;;;;;;6259748;28;20454;-56
2023/03/29 05:37:19;;;;;;;85.95;32.90;;;;;;;;;;6261233;28;20037;-55
2023/03/29 05:40:20;;;;;;;75.75;29.55;;;;;;;;;;6262326;28;20053;-52
2023/03/29 05:43:21;;;;;;;62.33;23.17;;;;;;;;;;6261871;28;20052;-60
2023/03/29 05:46:21;;;;;;;63.55;20.80;;;;;;;;;;6260193;28;20040;-54
2023/03/29 05:49:22;;;;;;;44.50;18.30;;;;;;;;;;6261086;28;20136;-59
2023/03/29 05:52:23;;;;;;;38.20;17.23;;;;;;;;;;6259708;28;20060;-60
2023/03/29 05:55:24;;;;;;;49.50;17.15;;;;;;;;;;6263531;28;20057;-58
2023/03/29 05:58:25;;;;;;;48.25;17.05;;;;;;;;;;6264407;28;20060;-55
2023/03/29 06:01:25;;;;;;;45.40;17.77;;;;;;;;;;6262107;28;20037;-52
2023/03/29 06:04:26;;;;;;;34.15;15.55;;;;;;;;;;6263707;28;20067;-54
2023/03/29 06:07:27;;;;;;;47.83;16.40;;;;;;;;;;6262436;28;20065;-56
2023/03/29 06:10:27;;;;;;;43.42;16.00;;;;;;;;;;6264828;28;20068;-59
2023/03/29 06:13:28;;;;;;;40.83;15.00;;;;;;;;;;6262100;28;20458;-62
2023/03/29 06:16:29;;;;;;;38.30;15.02;;;;;;;;;;6264262;28;20381;-55
2023/03/29 06:19:30;;;;;;;43.85;15.75;;;;;;;;;;6261078;28;20064;-55
2023/03/29 06:22:31;;;;;;;40.55;15.43;;;;;;;;;;6261637;28;20041;-54
2023/03/29 06:25:32;;;;;;;35.10;15.57;;;;;;;;;;6257862;28;20124;-56
2023/03/29 06:28:33;;;;;;;37.72;15.40;;;;;;;;;;6257355;28;20048;-54
2023/03/29 06:31:35;;;;;;;41.70;16.92;;;;;;;;;;6257678;28;20144;-57
2023/03/29 06:34:35;;;;;;;37.73;15.97;;;;;;;;;;6264042;28;20053;-54
2023/03/29 06:37:39;;;;;;;38.78;14.80;;;;;;;;;;6260704;28;20078;-56
2023/03/29 06:40:41;;;;;;;36.55;15.75;;;;;;;;;;6260843;28;20135;-60
2023/03/29 06:43:42;;;;;;;38.20;15.25;;;;;;;;;;6256995;28;20053;-52
2023/03/29 06:46:43;;;;;;;45.42;15.75;;;;;;;;;;6259881;28;20041;-52
2023/03/29 06:49:44;;;;;;;39.97;13.88;;;;;;;;;;6260851;28;20052;-56
2023/03/29 06:52:45;;;;;;;37.67;14.98;;;;;;;;;;6265436;28;20052;-59
2023/03/29 06:55:46;;;;;;;38.28;15.50;;;;;;;;;;6262234;28;20052;-55
2023/03/29 06:58:47;;;;;;;41.65;16.13;;;;;;;;;;6267957;28;20087;-56
2023/03/29 07:01:48;;;;;;;38.20;14.60;;;;;;;;;;6269948;28;20159;-56
2023/03/29 07:04:48;;;;;;;31.35;12.45;;;;;;;;;;6265752;28;20060;-60
2023/03/29 07:07:54;;;;;;;32.60;11.70;;;;;;;;;;6266922;28;20049;-56
2023/03/29 07:10:54;;;;;;;30.65;11.27;;;;;;;;;;6263588;28;20057;-57
2023/03/29 07:13:55;;;;;;;33.63;11.65;;;;;;;;;;6260117;28;20165;-54
2023/03/29 07:16:57;;;;;;;31.10;10.23;;;;;;;;;;6261575;28;20041;-55
2023/03/29 07:19:57;;;;;;;24.55;9.60;;;;;;;;;;6260310;28;20037;-55
2023/03/29 07:22:59;;;;;;;27.45;10.85;;;;;;;;;;6265401;28;20098;-57
2023/03/29 07:26:01;;;;;;;24.70;10.17;;;;;;;;;;6263089;28;20045;-56
2023/03/29 07:29:01;;;;;;;26.13;9.93;;;;;;;;;;6262274;28;20059;-53
2023/03/29 07:32:03;;;;;;;26.42;10.13;;;;;;;;;;6261764;28;20128;-56
2023/03/29 07:35:05;;;;;;;24.60;9.93;;;;;;;;;;6262855;28;20080;-59
2023/03/29 07:38:07;;;;;;;23.35;8.95;;;;;;;;;;6263903;28;20044;-55
2023/03/29 07:41:07;;;;;;;21.10;7.67;;;;;;;;;;6267103;28;20041;-55
2023/03/29 07:44:08;;;;;;;23.30;7.57;;;;;;;;;;6261269;28;20298;-56
2023/03/29 07:47:08;;;;;;;22.05;7.38;;;;;;;;;;6263986;28;20139;-56
2023/03/29 07:50:10;;;;;;;17.38;7.57;;;;;;;;;;6262591;28;20459;-54
2023/03/29 07:53:11;;;;;;;17.73;6.82;;;;;;;;;;6265849;28;20053;-55
2023/03/29 07:56:12;;;;;;;20.40;8.75;;;;;;;;;;6261809;28;20044;-54
2023/03/29 07:59:12;;;;;;;20.92;6.85;;;;;;;;;;6262954;28;20411;-56
2023/03/29 08:02:14;;;;;;;16.60;6.68;;;;;;;;;;6263143;28;20040;-54
2023/03/29 08:05:16;;;;;;;16.23;6.53;;;;;;;;;;6259110;28;20068;-56
2023/03/29 08:08:16;;;;;;;14.95;5.97;;;;;;;;;;6263499;28;20053;-55
2023/03/29 08:11:17;;;;;;;15.52;5.88;;;;;;;;;;6263738;28;20557;-55
2023/03/29 08:14:20;;;;;;;11.25;5.32;;;;;;;;;;6261027;28;20255;-56
2023/03/29 08:17:21;;;;;;;13.40;5.07;;;;;;;;;;6264166;28;20408;-55
2023/03/29 08:20:21;;;;;;;14.05;5.30;;;;;;;;;;6268537;28;20049;-57
2023/03/29 08:23:22;;;;;;;12.25;4.65;;;;;;;;;;6260642;28;20053;-57
2023/03/29 08:26:23;;;;;;;10.85;4.60;;;;;;;;;;6262382;28;20040;-57
2023/03/29 08:29:23;;;;;;;13.60;4.70;;;;;;;;;;6265041;28;20049;-52
2023/03/29 08:32:24;;;;;;;10.63;3.95;;;;;;;;;;6262060;28;20057;-56
2023/03/29 08:35:25;;;;;;;10.85;4.00;;;;;;;;;;6259553;28;20052;-56
2023/03/29 08:38:26;;;;;;;9.60;3.67;;;;;;;;;;6263981;28;20037;-53
2023/03/29 08:41:37;;;;;;;11.13;4.35;;;;;;;;;;6261196;28;20053;-56
2023/03/29 08:44:55;;;;;;;9.80;3.90;;;;;;;;;;6259870;28;20052;-57
2023/03/29 08:48:05;;;;;;;11.60;4.00;;;;;;;;;;6261702;28;20056;-57
2023/03/29 08:51:20;;;;;;;9.85;3.63;;;;;;;;;;6260650;28;20053;-56
2023/03/29 08:54:25;;;;;;;11.15;4.22;;;;;;;;;;6261436;28;20045;-57
2023/03/29 08:57:32;;;;;;;10.80;4.10;;;;;;;;;;6258073;28;20478;-57
2023/03/29 09:00:41;;;;;;;10.98;5.05;;;;;;;;;;6261448;28;20049;-55
2023/03/29 09:04:01;;;;;;;11.82;4.45;;;;;;;;;;6261133;28;20543;-57
2023/03/29 09:07:10;;;;;;;10.10;3.70;;;;;;;;;;6261011;28;20060;-57
2023/03/29 09:10:23;;;;;;;10.93;4.13;;;;;;;;;;6257651;28;20186;-56
2023/03/29 09:13:42;;;;;;;;;;;;;;;;;;6264401;28;20515;-55
2023/03/29 09:16:55;;;;;;;11.82;3.75;;;;;;;;;;6264448;28;20022;-55
2023/03/29 09:20:09;;;;;;;12.68;3.30;;;;;;;;;;6262544;28;20098;-55
2023/03/29 09:23:29;;;;;;;6.60;2.63;;;;;;;;;;6263983;28;20059;-57
2023/03/29 09:26:53;;;;;;;6.72;2.47;;;;;;;;;;6250018;28;20190;-59
2023/03/29 09:30:13;;;;;;;14.35;5.07;;;;;;;;;;6260628;28;20118;-55
2023/03/29 09:34:04;;;;;;;11.68;4.18;;;;;;;;;;6261136;28;20052;-57
2023/03/29 09:37:14;;;;;;;10.85;4.65;;;;;;;;;;6198880;28;20053;-55
2023/03/29 09:40:18;;;;;;;12.65;4.53;;;;;;;;;;6258914;28;20083;-57
2023/03/29 09:43:35;;;;;;;9.93;4.07;;;;;;;;;;6260365;28;20053;-56
2023/03/29 09:46:43;;;;;;;8.85;4.07;;;;;;;;;;6261737;28;20049;-56
2023/03/29 09:49:48;;;;;;;10.82;4.07;;;;;;;;;;6259056;28;20044;-55
2023/03/29 09:52:49;;;;;;;9.25;4.10;;;;;;;;;;6258559;28;20871;-57
2023/03/29 09:55:50;;;;;;;9.68;3.83;;;;;;;;;;6259503;28;20045;-60
2023/03/29 09:58:51;;;;;;;10.75;3.88;;;;;;;;;;6260009;28;20045;-58
2023/03/29 10:01:51;;;;;;;10.00;3.83;;;;;;;;;;6257753;28;20041;-57
2023/03/29 10:04:59;;;;;;;10.75;4.30;;;;;;;;;;6259834;28;20041;-58
2023/03/29 10:08:00;;;;;;;10.68;4.22;;;;;;;;;;6260606;28;20045;-56
2023/03/29 10:11:08;;;;;;;15.23;4.80;;;;;;;;;;6256837;28;20144;-56
2023/03/29 10:14:16;;;;;;;7.45;3.55;;;;;;;;;;6258965;28;20645;-58
2023/03/29 10:17:22;;;;;;;6.57;3.17;;;;;;;;;;6255555;28;20239;-56
2023/03/29 10:20:23;;;;;;;7.68;3.42;;;;;;;;;;6258241;28;20045;-56
2023/03/29 10:23:30;;;;;;;8.77;3.58;;;;;;;;;;6260149;28;20059;-57
2023/03/29 10:26:32;;;;;;;6.95;3.60;;;;;;;;;;6263868;28;20055;-56
2023/03/29 10:29:37;;;;;;;;;;;;;;;;;;6263159;28;20194;-58
2023/03/29 10:32:39;;;;;;;9.63;3.42;;;;;;;;;;6262523;28;19936;-57
2023/03/29 10:35:43;;;;;;;11.75;3.50;;;;;;;;;;6268807;28;20049;-54
2023/03/29 10:38:43;;;;;;;10.02;3.90;;;;;;;;;;6266512;28;20555;-55
2023/03/29 10:41:44;;;;;;;8.43;3.42;;;;;;;;;;6264216;28;20234;-58
2023/03/29 10:44:58;;;;;;;7.75;3.47;;;;;;;;;;6271575;28;20132;-56
2023/03/29 10:47:59;;;;;;;8.65;4.10;;;;;;;;;;6266511;28;20048;-57
2023/03/29 10:51:02;;;;;;;9.90;4.15;;;;;;;;;;6264813;28;20053;-56
2023/03/29 10:54:02;;;;;;;;;;;;;;;;;;6262976;28;20098;-56
2023/03/29 10:57:09;;;;;;;9.70;4.38;;;;;;;;;;6263737;28;19920;-56
2023/03/29 11:00:21;;;;;;;8.48;3.78;;;;;;;;;;6263474;28;20071;-56
2023/03/29 11:03:24;;;;;;;8.70;3.40;;;;;;;;;;6262326;28;20847;-57
2023/03/29 11:06:38;;;;;;;10.32;3.60;;;;;;;;;;6265580;28;20128;-58
2023/03/29 11:10:12;;;;;;;9.52;3.28;;;;;;;;;;6267284;28;20052;-56
2023/03/29 11:13:30;;;;;;;9.20;3.42;;;;;;;;;;6261826;28;20396;-56
2023/03/29 11:16:51;;;;;;;9.10;3.50;;;;;;;;;;6261258;28;20090;-56
2023/03/29 11:20:18;;;;;;;8.65;3.72;;;;;;;;;;6260363;28;20064;-56
2023/03/29 11:23:48;;;;;;;9.18;4.20;;;;;;;;;;6267121;28;20067;-58
2023/03/29 11:26:52;;;;;;;8.63;3.70;;;;;;;;;;6265198;28;20049;-58
2023/03/29 11:30:24;;;;;;;8.73;3.60;;;;;;;;;;6267898;28;20044;-58
2023/03/29 11:33:36;;;;;;;8.07;3.25;;;;;;;;;;6261738;28;20381;-59
2023/03/29 11:37:10;;;;;;;7.95;3.83;;;;;;;;;;6266787;28;20056;-57
2023/03/29 11:40:34;;;;;;;7.10;3.90;;;;;;;;;;6263410;28;20128;-57
2023/03/29 11:44:13;;;;;;;9.63;3.83;;;;;;;;;;6263480;28;22349;-56
2023/03/29 11:47:26;;;;;;;10.30;3.85;;;;;;;;;;6262505;28;20056;-57
2023/03/29 11:50:49;;;;;;;10.45;4.25;;;;;;;;;;6260147;28;20056;-55
2023/03/29 11:54:22;;;;;;;8.00;3.45;;;;;;;;;;6267057;28;20389;-57
2023/03/29 11:57:36;;;;;;;9.27;4.40;;;;;;;;;;6264971;28;20447;-58
2023/03/29 12:00:46;;;;;;;11.13;3.63;;;;;;;;;;6262686;28;20055;-57
2023/03/29 12:03:54;;;;;;;7.57;3.55;;;;;;;;;;6262472;28;20140;-57
2023/03/29 12:07:11;;;;;;;13.23;4.00;;;;;;;;;;6268413;28;20041;-57
2023/03/29 12:10:20;;;;;;;10.07;3.95;;;;;;;;;;6262320;28;20131;-57
2023/03/29 12:13:31;;;;;;;8.48;3.92;;;;;;;;;;6266514;28;20120;-54
2023/03/29 12:16:43;;;;;;;9.43;4.68;;;;;;;;;;6264144;28;20051;-58
2023/03/29 12:20:03;;;;;;;;;;;;;;;;;;6261045;28;20040;-59
2023/03/29 12:23:06;;;;;;;12.93;4.28;;;;;;;;;;6262611;28;19964;-57
2023/03/29 12:26:26;;;;;;;8.07;3.72;;;;;;;;;;6262649;28;20468;-56
2023/03/29 12:30:00;;;;;;;9.25;4.10;;;;;;;;;;6264734;28;20048;-56
2023/03/29 12:33:01;;;;;;;10.10;3.78;;;;;;;;;;6260925;28;20508;-56
2023/03/29 12:36:16;;;;;;;11.23;3.53;;;;;;;;;;6267501;28;20053;-57
2023/03/29 12:39:19;;;;;;;10.88;4.43;;;;;;;;;;6638209;23;20215;-57
2023/03/29 12:42:22;;;;;;;9.85;4.05;;;;;;;;;;6194078;28;20045;-56
2023/03/29 12:45:37;;;;;;;11.68;3.58;;;;;;;;;;6195585;28;20046;-56
2023/03/29 12:48:40;;;;;;;11.48;4.40;;;;;;;;;;6193348;28;20038;-57
2023/03/29 12:51:42;;;;;;;9.60;3.58;;;;;;;;;;6193654;28;20511;-55
2023/03/29 12:55:24;;;;;;;9.10;3.70;;;;;;;;;;6218374;28;20048;-56
2023/03/29 12:58:35;;;;;;;8.43;3.83;;;;;;;;;;6169569;28;20128;-59
2023/03/29 13:01:39;;;;;;;9.05;4.10;;;;;;;;;;6197731;28;20149;-54
2023/03/29 13:04:59;;;;;;;9.63;3.97;;;;;;;;;;6194791;28;20084;-60
2023/03/29 13:08:18;;;;;;;10.55;4.00;;;;;;;;;;6196489;28;20042;-58
2023/03/29 13:11:34;;;;;;;9.10;3.72;;;;;;;;;;6199857;28;20050;-58
2023/03/29 13:14:39;;;;;;;10.98;4.18;;;;;;;;;;6194756;28;20727;-55
2023/03/29 13:17:59;;;;;;;9.95;4.30;;;;;;;;;;6192617;28;20524;-56
2023/03/29 13:21:02;;;;;;;9.50;3.67;;;;;;;;;;6193468;28;20556;-60
2023/03/29 13:24:23;;;;;;;8.30;3.90;;;;;;;;;;6176300;28;20058;-59
2023/03/29 13:27:51;;;;;;;11.90;4.95;;;;;;;;;;6171746;28;20058;-59
2023/03/29 13:31:37;;;;;;;8.55;3.47;;;;;;;;;;6180258;28;20050;-58
2023/03/29 13:34:52;;;;;;;10.30;3.53;;;;;;;;;;6099211;29;20166;-58
2023/03/29 13:38:18;;;;;;;7.95;3.20;;;;;;;;;;6107411;28;20054;-58
2023/03/29 13:41:45;;;;;;;10.10;3.65;;;;;;;;;;6181636;28;20111;-56
2023/03/29 13:44:48;;;;;;;10.57;5.07;;;;;;;;;;6175622;28;20213;-56
2023/03/29 13:47:48;;;;;;;9.50;4.60;;;;;;;;;;6179433;28;20054;-58
2023/03/29 13:50:55;;;;;;;67.97;36.10;;;;;;;;;;6178166;28;20050;-58
2023/03/29 13:53:59;;;;;;;15.60;10.40;;;;;;;;;;6179280;28;20564;-55
2023/03/29 13:57:07;;;;;;;11.15;4.20;;;;;;;;;;6178671;28;20062;-59
2023/03/29 14:00:29;;;;;;;6.90;3.30;;;;;;;;;;6184633;28;20573;-58
2023/03/29 14:03:39;;;;;;;9.93;3.38;;;;;;;;;;6183788;28;20058;-59
2023/03/29 14:06:46;;;;;;;12.57;4.50;;;;;;;;;;6184608;28;20121;-60
2023/03/29 14:09:49;;;;;;;8.88;3.80;;;;;;;;;;6183797;28;20050;-56
2023/03/29 14:12:49;;;;;;;14.55;4.90;;;;;;;;;;6183472;28;20423;-59
2023/03/29 14:15:54;;;;;;;8.32;3.97;;;;;;;;;;6184093;28;20047;-55
2023/03/29 14:18:58;;;;;;;8.13;4.18;;;;;;;;;;6185182;28;20042;-57
2023/03/29 14:22:00;;;;;;;8.38;4.20;;;;;;;;;;6183437;28;20600;-59
2023/03/29 14:25:06;;;;;;;7.97;3.85;;;;;;;;;;6185799;28;20054;-61
2023/03/29 14:28:19;;;;;;;11.57;4.00;;;;;;;;;;6185106;28;20058;-55
2023/03/29 14:31:22;;;;;;;11.13;5.72;;;;;;;;;;6184519;28;20708;-57
2023/03/29 14:34:23;;;;;;;8.38;4.00;;;;;;;;;;6184666;28;20465;-60
2023/03/29 14:37:27;;;;;;;10.27;4.82;;;;;;;;;;6183967;28;20051;-61
2023/03/29 14:40:29;;;;;;;11.63;3.75;;;;;;;;;;6182685;28;20057;-61
2023/03/29 14:43:30;;;;;;;7.95;3.40;;;;;;;;;;6183857;28;20072;-60
2023/03/29 14:46:32;;;;;;;8.98;3.40;;;;;;;;;;6185614;28;20050;-61
2023/03/29 14:49:33;;;;;;;8.55;3.22;;;;;;;;;;6182311;28;20050;-59
2023/03/29 14:52:35;;;;;;;9.45;3.10;;;;;;;;;;6181092;28;20066;-56
2023/03/29 14:55:37;;;;;;;8.23;3.40;;;;;;;;;;6185288;28;20058;-58
2023/03/29 14:58:39;;;;;;;11.00;4.32;;;;;;;;;;6184377;28;20054;-59
2023/03/29 15:01:43;;;;;;;8.77;3.78;;;;;;;;;;6182780;28;20054;-56
2023/03/29 15:04:43;;;;;;;21.75;12.95;;;;;;;;;;6181181;28;20049;-58
2023/03/29 15:07:44;;;;;;;13.63;9.30;;;;;;;;;;6185405;28;20046;-58
2023/03/29 15:10:45;;;;;;;13.40;6.68;;;;;;;;;;6181258;28;20046;-61
2023/03/29 15:13:47;;;;;;;10.73;4.10;;;;;;;;;;6180946;28;20460;-56
2023/03/29 15:16:51;;;;;;;9.48;3.97;;;;;;;;;;6184754;28;20104;-59
2023/03/29 15:20:07;;;;;;;9.40;4.10;;;;;;;;;;6186857;28;20042;-57
2023/03/29 15:23:15;;;;;;;11.18;3.30;;;;;;;;;;6180546;28;20054;-60
2023/03/29 15:26:21;;;;;;;25.33;14.65;;;;;;;;;;6185266;28;20097;-55
2023/03/29 15:29:25;;;;;;;10.65;4.25;;;;;;;;;;6184333;28;20052;-60
2023/03/29 15:32:33;;;;;;;11.30;4.38;;;;;;;;;;6181869;28;20057;-60
2023/03/29 15:35:34;;;;;;;8.65;4.13;;;;;;;;;;6181887;28;20050;-58
2023/03/29 15:38:36;;;;;;;17.20;5.50;;;;;;;;;;6182190;28;20476;-57
2023/03/29 15:41:37;;;;;;;10.30;4.10;;;;;;;;;;6181610;28;20050;-53
2023/03/29 15:44:37;;;;;;;8.60;4.38;;;;;;;;;;6178422;28;20058;-56
2023/03/29 15:47:38;;;;;;;9.52;3.65;;;;;;;;;;6183581;28;20054;-59
2023/03/29 15:50:38;;;;;;;7.72;4.07;;;;;;;;;;6183303;28;20050;-55
2023/03/29 15:53:40;;;;;;;64.43;22.63;;;;;;;;;;6181027;28;20143;-57
2023/03/29 15:56:49;;;;;;;11.27;6.55;;;;;;;;;;6178686;28;20469;-56
2023/03/29 15:59:49;;;;;;;9.82;4.00;;;;;;;;;;6181637;28;20042;-60
2023/03/29 16:02:50;;;;;;;11.30;4.97;;;;;;;;;;6178253;28;20376;-57
2023/03/29 16:05:53;;;;;;;10.10;6.30;;;;;;;;;;6180053;28;20050;-56
2023/03/29 16:08:53;;;;;;;9.45;4.20;;;;;;;;;;6184615;28;20596;-60
2023/03/29 16:11:54;;;;;;;9.00;3.95;;;;;;;;;;6183044;28;20053;-60
2023/03/29 16:14:54;;;;;;;9.63;4.18;;;;;;;;;;6177986;28;20230;-58
2023/03/29 16:17:55;;;;;;;8.27;3.55;;;;;;;;;;6184239;28;20125;-69
2023/03/29 16:20:55;;;;;;;9.20;3.42;;;;;;;;;;6183094;28;20143;-61
2023/03/29 16:23:56;;;;;;;13.50;4.22;;;;;;;;;;6176228;28;20082;-65
2023/03/29 16:26:57;;;;;;;14.45;4.90;;;;;;;;;;6182457;28;20046;-56
2023/03/29 16:29:58;;;;;;;14.17;4.77;;;;;;;;;;6181491;28;20054;-61
2023/03/29 16:33:00;;;;;;;14.95;5.20;;;;;;;;;;6183216;28;20520;-59
2023/03/29 16:36:02;;;;;;;11.93;3.97;;;;;;;;;;6165255;28;20046;-58
2023/03/29 16:39:04;;;;;;;12.70;5.25;;;;;;;;;;6186289;28;20058;-56
2023/03/29 16:42:05;;;;;;;12.35;5.25;;;;;;;;;;6184191;28;20058;-57
2023/03/29 16:45:06;;;;;;;14.77;5.25;;;;;;;;;;6185605;28;20046;-57
2023/03/29 16:48:17;;;;;;;11.70;4.97;;;;;;;;;;6183937;28;20149;-55
2023/03/29 16:51:19;;;;;;;15.38;5.28;;;;;;;;;;6186715;28;20054;-54
2023/03/29 16:54:20;;;;;;;;;;;;;;;;;;6184416;28;20050;-57
2023/03/29 16:57:20;;;;;;;11.50;4.32;;;;;;;;;;6185737;28;20399;-57
2023/03/29 17:00:21;;;;;;;17.05;6.78;;;;;;;;;;6186210;28;20046;-55
2023/03/29 17:03:22;;;;;;;22.35;7.13;;;;;;;;;;6183191;28;20050;-58
2023/03/29 17:06:23;;;;;;;23.35;7.65;;;;;;;;;;6185360;28;20056;-55
2023/03/29 17:09:24;;;;;;;34.22;14.93;;;;;;;;;;6168892;28;20058;-57
2023/03/29 17:12:25;;;;;;;32.45;12.90;;;;;;;;;;6184273;28;20070;-56
2023/03/29 17:15:25;;;;;;;12.88;4.45;;;;;;;;;;6184329;28;20046;-54
2023/03/29 17:18:26;;;;;;;14.10;4.25;;;;;;;;;;6186742;28;20451;-58
2023/03/29 17:21:29;;;;;;;10.15;5.22;;;;;;;;;;6186654;28;20045;-57
2023/03/29 17:24:30;;;;;;;27.13;9.57;;;;;;;;;;6182382;28;20057;-58
2023/03/29 17:27:32;;;;;;;25.65;10.27;;;;;;;;;;6185438;28;20501;-57
2023/03/29 17:30:34;;;;;;;125.97;42.63;;;;;;;;;;6186276;28;20046;-56
2023/03/29 17:33:34;;;;;;;15.27;7.23;;;;;;;;;;6182817;28;21004;-56
2023/03/29 17:36:36;;;;;;;15.35;6.55;;;;;;;;;;6184763;28;20292;-56
2023/03/29 17:39:36;;;;;;;17.25;7.82;;;;;;;;;;6185892;28;20072;-56
2023/03/29 17:42:37;;;;;;;27.05;13.00;;;;;;;;;;6183808;28;20449;-60
2023/03/29 17:45:37;;;;;;;15.82;6.40;;;;;;;;;;6182785;28;20101;-54
2023/03/29 17:48:38;;;;;;;60.40;26.02;;;;;;;;;;6185681;28;20073;-54
2023/03/29 17:51:39;;;;;;;29.90;15.80;;;;;;;;;;6184588;28;20133;-57
2023/03/29 17:54:40;;;;;;;22.40;12.73;;;;;;;;;;6180977;28;20145;-62
2023/03/29 17:57:41;;;;;;;12.88;6.53;;;;;;;;;;6185870;28;20054;-62
2023/03/29 18:00:42;;;;;;;18.48;7.25;;;;;;;;;;6185488;28;20054;-61
2023/03/29 18:03:43;;;;;;;13.40;6.20;;;;;;;;;;6181711;28;20062;-61
2023/03/29 18:06:44;;;;;;;18.60;6.67;;;;;;;;;;6183845;28;20054;-61
2023/03/29 18:09:45;;;;;;;18.88;8.52;;;;;;;;;;6185430;28;20410;-55